sensor_id;sensor_type;location;lat;lon;timestamp;pressure;altitude;pressure_sealevel;temperature;humidity
56594;BME280;42474;51.660;5.824;2023-03-04T00:00:22;102580.0;;;6.5;67.5
56594;BME280;42474;51.660;5.824;2023-03-04T00:05:22;102580.0;;;6.4;67.5
56594;BME280;42474;51.660;5.824;2023-03-04T00:10:22;102580.0;;;6.4;68.0
56594;BME280;42474;51.660;5.824;2023-03-04T00:15:22;102580.0;;;6.4;68.0
56594;BME280;42474;51.660;5.824;2023-03-04T00:20:22;102570.0;;;6.4;68.0
56594;BME280;42474;51.660;5.824;2023-03-04T00:25:22;102580.0;;;6.4;68.0
56594;BME280;42474;51.660;5.824;2023-03-04T00:30:22;102570.0;;;6.3;68.0
56594;BME280;42474;51.660;5.824;2023-03-04T00:35:22;102570.0;;;6.4;68.0
56594;BME280;42474;51.660;5.824;2023-03-04T00:40:22;102560.0;;;6.4;68.0
56594;BME280;42474;51.660;5.824;2023-03-04T00:45:22;102580.0;;;6.4;68.0
56594;BME280;42474;51.660;5.824;2023-03-04T00:50:22;102580.0;;;6.4;68.0
56594;BME280;42474;51.660;5.824;2023-03-04T00:55:22;102570.0;;;6.4;68.0
56594;BME280;42474;51.660;5.824;2023-03-04T01:00:22;102570.0;;;6.4;68.0
56594;BME280;42474;51.660;5.824;2023-03-04T01:05:22;102580.0;;;6.4;67.5
56594;BME280;42474;51.660;5.824;2023-03-04T01:10:22;102580.0;;;6.3;68.0
56594;BME280;42474;51.660;5.824;2023-03-04T01:15:22;102570.0;;;6.3;68.0
56594;BME280;42474;51.660;5.824;2023-03-04T01:20:22;102570.0;;;6.4;68.0
56594;BME280;42474;51.660;5.824;2023-03-04T01:25:22;102570.0;;;6.4;68.0
56594;BME280;42474;51.660;5.824;2023-03-04T01:30:22;102570.0;;;6.4;68.0
56594;BME280;42474;51.660;5.824;2023-03-04T01:35:22;102560.0;;;6.4;68.0
56594;BME280;42474;51.660;5.824;2023-03-04T01:40:22;102550.0;;;6.4;68.0
56594;BME280;42474;51.660;5.824;2023-03-04T01:45:22;102550.0;;;6.4;68.5
56594;BME280;42474;51.660;5.824;2023-03-04T01:50:29;102540.0;;;6.4;68.0
56594;BME280;42474;51.660;5.824;2023-03-04T01:55:23;102540.0;;;6.3;68.0
56594;BME280;42474;51.660;5.824;2023-03-04T02:00:32;102540.0;;;6.3;68.5
56594;BME280;42474;51.660;5.824;2023-03-04T02:05:22;102530.0;;;6.3;68.5
56594;BME280;42474;51.660;5.824;2023-03-04T02:10:23;102530.0;;;6.3;68.5
56594;BME280;42474;51.660;5.824;2023-03-04T02:15:23;102520.0;;;6.3;68.5
56594;BME280;42474;51.660;5.824;2023-03-04T02:20:53;102510.0;;;6.3;68.5
56594;BME280;42474;51.660;5.824;2023-03-04T02:25:39;102520.0;;;6.3;68.5
56594;BME280;42474;51.660;5.824;2023-03-04T02:30:23;102510.0;;;6.3;68.5
56594;BME280;42474;51.660;5.824;2023-03-04T02:35:22;102510.0;;;6.3;68.5
56594;BME280;42474;51.660;5.824;2023-03-04T02:40:29;102510.0;;;6.3;68.5
56594;BME280;42474;51.660;5.824;2023-03-04T02:45:46;102500.0;;;6.3;68.5
56594;BME280;42474;51.660;5.824;2023-03-04T02:50:22;102500.0;;;6.3;68.5
56594;BME280;42474;51.660;5.824;2023-03-04T02:55:22;102500.0;;;6.3;69.0
56594;BME280;42474;51.660;5.824;2023-03-04T03:00:22;102490.0;;;6.3;69.0
56594;BME280;42474;51.660;5.824;2023-03-04T03:05:24;102500.0;;;6.3;69.0
56594;BME280;42474;51.660;5.824;2023-03-04T03:10:23;102490.0;;;6.3;69.0
56594;BME280;42474;51.660;5.824;2023-03-04T03:15:22;102480.0;;;6.3;69.0
56594;BME280;42474;51.660;5.824;2023-03-04T03:20:22;102480.0;;;6.3;69.5
56594;BME280;42474;51.660;5.824;2023-03-04T03:25:22;102480.0;;;6.3;69.5
56594;BME280;42474;51.660;5.824;2023-03-04T03:30:22;102480.0;;;6.2;69.5
56594;BME280;42474;51.660;5.824;2023-03-04T03:35:22;102480.0;;;6.3;69.5
56594;BME280;42474;51.660;5.824;2023-03-04T03:40:22;102480.0;;;6.3;69.5
56594;BME280;42474;51.660;5.824;2023-03-04T03:45:22;102480.0;;;6.2;69.5
56594;BME280;42474;51.660;5.824;2023-03-04T03:50:22;102470.0;;;6.2;69.5
56594;BME280;42474;51.660;5.824;2023-03-04T03:55:22;102460.0;;;6.2;69.5
56594;BME280;42474;51.660;5.824;2023-03-04T04:00:22;102470.0;;;6.3;69.5
56594;BME280;42474;51.660;5.824;2023-03-04T04:05:22;102470.0;;;6.2;69.5
56594;BME280;42474;51.660;5.824;2023-03-04T04:10:22;102470.0;;;6.2;69.5
56594;BME280;42474;51.660;5.824;2023-03-04T04:15:22;102470.0;;;6.2;69.5
56594;BME280;42474;51.660;5.824;2023-03-04T04:20:22;102470.0;;;6.3;69.5
56594;BME280;42474;51.660;5.824;2023-03-04T04:25:22;102470.0;;;6.3;69.5
56594;BME280;42474;51.660;5.824;2023-03-04T04:30:22;102470.0;;;6.3;69.5
56594;BME280;42474;51.660;5.824;2023-03-04T04:35:22;102470.0;;;6.3;69.5
56594;BME280;42474;51.660;5.824;2023-03-04T04:40:22;102470.0;;;6.3;70.0
56594;BME280;42474;51.660;5.824;2023-03-04T04:45:22;102470.0;;;6.3;70.0
56594;BME280;42474;51.660;5.824;2023-03-04T04:50:22;102470.0;;;6.3;69.5
56594;BME280;42474;51.660;5.824;2023-03-04T04:55:22;102470.0;;;6.3;70.0
56594;BME280;42474;51.660;5.824;2023-03-04T05:00:22;102480.0;;;6.3;70.0
56594;BME280;42474;51.660;5.824;2023-03-04T05:05:22;102480.0;;;6.3;69.5
56594;BME280;42474;51.660;5.824;2023-03-04T05:10:22;102480.0;;;6.3;69.5
56594;BME280;42474;51.660;5.824;2023-03-04T05:15:22;102480.0;;;6.2;69.5
56594;BME280;42474;51.660;5.824;2023-03-04T05:20:22;102480.0;;;6.2;69.5
56594;BME280;42474;51.660;5.824;2023-03-04T05:25:22;102470.0;;;6.2;70.0
56594;BME280;42474;51.660;5.824;2023-03-04T05:30:22;102470.0;;;6.2;70.0
56594;BME280;42474;51.660;5.824;2023-03-04T05:35:22;102480.0;;;6.2;70.0
56594;BME280;42474;51.660;5.824;2023-03-04T05:40:22;102480.0;;;6.2;70.0
56594;BME280;42474;51.660;5.824;2023-03-04T05:45:22;102470.0;;;6.1;70.0
56594;BME280;42474;51.660;5.824;2023-03-04T05:50:23;102490.0;;;6.1;70.0
56594;BME280;42474;51.660;5.824;2023-03-04T05:55:22;102490.0;;;6.1;70.0
56594;BME280;42474;51.660;5.824;2023-03-04T06:00:23;102490.0;;;6.1;70.5
56594;BME280;42474;51.660;5.824;2023-03-04T06:05:22;102480.0;;;6.1;70.5
56594;BME280;42474;51.660;5.824;2023-03-04T06:10:22;102490.0;;;6.1;70.5
56594;BME280;42474;51.660;5.824;2023-03-04T06:15:22;102490.0;;;6.1;70.5
56594;BME280;42474;51.660;5.824;2023-03-04T06:20:22;102490.0;;;6.1;70.5
56594;BME280;42474;51.660;5.824;2023-03-04T06:25:23;102490.0;;;6.1;70.5
56594;BME280;42474;51.660;5.824;2023-03-04T06:30:22;102500.0;;;6.1;70.5
56594;BME280;42474;51.660;5.824;2023-03-04T06:35:22;102500.0;;;6.1;70.5
56594;BME280;42474;51.660;5.824;2023-03-04T06:40:22;102500.0;;;6.1;70.5
56594;BME280;42474;51.660;5.824;2023-03-04T06:45:22;102510.0;;;6.2;70.5
56594;BME280;42474;51.660;5.824;2023-03-04T06:50:22;102500.0;;;6.2;70.5
56594;BME280;42474;51.660;5.824;2023-03-04T06:55:22;102500.0;;;6.2;70.5
56594;BME280;42474;51.660;5.824;2023-03-04T07:00:22;102510.0;;;6.2;70.5
56594;BME280;42474;51.660;5.824;2023-03-04T07:05:22;102520.0;;;6.2;70.5
56594;BME280;42474;51.660;5.824;2023-03-04T07:10:22;102510.0;;;6.2;70.5
56594;BME280;42474;51.660;5.824;2023-03-04T07:15:22;102510.0;;;6.2;71.0
56594;BME280;42474;51.660;5.824;2023-03-04T07:20:22;102510.0;;;6.3;71.0
56594;BME280;42474;51.660;5.824;2023-03-04T07:25:22;102510.0;;;6.3;71.0
56594;BME280;42474;51.660;5.824;2023-03-04T07:30:22;102510.0;;;6.4;71.0
56594;BME280;42474;51.660;5.824;2023-03-04T07:35:22;102520.0;;;6.4;71.0
56594;BME280;42474;51.660;5.824;2023-03-04T07:40:22;102530.0;;;6.5;71.0
56594;BME280;42474;51.660;5.824;2023-03-04T07:45:23;102530.0;;;6.6;71.0
56594;BME280;42474;51.660;5.824;2023-03-04T07:50:22;102530.0;;;6.6;71.0
56594;BME280;42474;51.660;5.824;2023-03-04T07:55:22;102530.0;;;6.7;71.0
56594;BME280;42474;51.660;5.824;2023-03-04T08:00:22;102540.0;;;6.7;71.0
56594;BME280;42474;51.660;5.824;2023-03-04T08:05:22;102540.0;;;6.8;71.0
56594;BME280;42474;51.660;5.824;2023-03-04T08:10:22;102550.0;;;6.9;71.0
56594;BME280;42474;51.660;5.824;2023-03-04T08:15:22;102540.0;;;6.9;71.0
56594;BME280;42474;51.660;5.824;2023-03-04T08:20:22;102540.0;;;7.1;71.0
56594;BME280;42474;51.660;5.824;2023-03-04T08:25:22;102550.0;;;7.3;71.0
56594;BME280;42474;51.660;5.824;2023-03-04T08:30:22;102550.0;;;7.5;71.0
56594;BME280;42474;51.660;5.824;2023-03-04T08:35:22;102550.0;;;7.5;71.0
56594;BME280;42474;51.660;5.824;2023-03-04T08:40:23;102550.0;;;7.6;71.0
56594;BME280;42474;51.660;5.824;2023-03-04T08:45:22;102550.0;;;7.6;71.5
56594;BME280;42474;51.660;5.824;2023-03-04T08:50:22;102550.0;;;7.8;71.5
56594;BME280;42474;51.660;5.824;2023-03-04T08:55:22;102550.0;;;8.0;71.5
56594;BME280;42474;51.660;5.824;2023-03-04T09:00:22;102550.0;;;8.1;71.5
56594;BME280;42474;51.660;5.824;2023-03-04T09:05:22;102550.0;;;8.3;71.0
56594;BME280;42474;51.660;5.824;2023-03-04T09:10:23;102540.0;;;8.4;71.0
56594;BME280;42474;51.660;5.824;2023-03-04T09:15:22;102540.0;;;8.5;71.0
56594;BME280;42474;51.660;5.824;2023-03-04T09:20:22;102540.0;;;8.6;71.0
56594;BME280;42474;51.660;5.824;2023-03-04T09:25:22;102530.0;;;8.7;70.5
56594;BME280;42474;51.660;5.824;2023-03-04T09:30:22;102530.0;;;8.8;70.5
56594;BME280;42474;51.660;5.824;2023-03-04T09:35:22;102520.0;;;8.9;70.0
56594;BME280;42474;51.660;5.824;2023-03-04T09:40:26;102520.0;;;9.0;70.0
56594;BME280;42474;51.660;5.824;2023-03-04T09:45:32;102510.0;;;9.0;70.0
56594;BME280;42474;51.660;5.824;2023-03-04T09:50:22;102510.0;;;9.1;70.0
56594;BME280;42474;51.660;5.824;2023-03-04T09:55:36;102510.0;;;9.3;69.5
56594;BME280;42474;51.660;5.824;2023-03-04T10:00:31;102510.0;;;9.1;69.0
56594;BME280;42474;51.660;5.824;2023-03-04T10:05:25;102520.0;;;8.9;69.0
56594;BME280;42474;51.660;5.824;2023-03-04T10:10:35;102520.0;;;8.9;69.5
56594;BME280;42474;51.660;5.824;2023-03-04T10:15:37;102520.0;;;8.9;69.5
56594;BME280;42474;51.660;5.824;2023-03-04T10:20:29;102520.0;;;8.8;69.5
56594;BME280;42474;51.660;5.824;2023-03-04T10:25:28;102510.0;;;8.7;70.0
56594;BME280;42474;51.660;5.824;2023-03-04T10:30:39;102510.0;;;8.7;70.5
56594;BME280;42474;51.660;5.824;2023-03-04T10:35:32;102520.0;;;8.8;70.5
56594;BME280;42474;51.660;5.824;2023-03-04T10:40:24;102510.0;;;8.9;70.5
56594;BME280;42474;51.660;5.824;2023-03-04T10:45:26;102510.0;;;9.0;70.5
56594;BME280;42474;51.660;5.824;2023-03-04T10:50:26;102500.0;;;9.1;70.5
56594;BME280;42474;51.660;5.824;2023-03-04T10:55:27;102490.0;;;9.2;70.5
56594;BME280;42474;51.660;5.824;2023-03-04T11:00:34;102490.0;;;9.3;70.5
56594;BME280;42474;51.660;5.824;2023-03-04T11:05:24;102490.0;;;9.4;70.5
56594;BME280;42474;51.660;5.824;2023-03-04T11:10:39;102470.0;;;9.6;70.5
56594;BME280;42474;51.660;5.824;2023-03-04T11:15:26;102470.0;;;9.8;70.0
56594;BME280;42474;51.660;5.824;2023-03-04T11:20:38;102470.0;;;9.9;69.5
56594;BME280;42474;51.660;5.824;2023-03-04T11:25:31;102460.0;;;10.0;69.5
56594;BME280;42474;51.660;5.824;2023-03-04T11:30:44;102450.0;;;9.9;69.0
56594;BME280;42474;51.660;5.824;2023-03-04T11:35:32;102450.0;;;9.8;69.0
56594;BME280;42474;51.660;5.824;2023-03-04T11:40:34;102440.0;;;9.7;69.0
56594;BME280;42474;51.660;5.824;2023-03-04T11:45:44;102440.0;;;9.8;69.5
56594;BME280;42474;51.660;5.824;2023-03-04T11:51:10;102440.0;;;9.9;69.5
56594;BME280;42474;51.660;5.824;2023-03-04T11:56:20;102430.0;;;9.9;69.0
56594;BME280;42474;51.660;5.824;2023-03-04T12:01:36;102430.0;;;9.7;69.0
56594;BME280;42474;51.660;5.824;2023-03-04T12:06:31;102430.0;;;9.6;69.0
56594;BME280;42474;51.660;5.824;2023-03-04T12:11:56;102420.0;;;9.6;69.5
56594;BME280;42474;51.660;5.824;2023-03-04T12:16:55;102410.0;;;9.7;70.0
56594;BME280;42474;51.660;5.824;2023-03-04T12:22:44;102400.0;;;9.9;69.5
56594;BME280;42474;51.660;5.824;2023-03-04T12:27:20;102390.0;;;10.0;69.0
56594;BME280;42474;51.660;5.824;2023-03-04T12:31:55;102380.0;;;10.0;69.0
56594;BME280;42474;51.660;5.824;2023-03-04T12:37:28;102380.0;;;10.1;69.0
56594;BME280;42474;51.660;5.824;2023-03-04T12:42:27;102380.0;;;10.2;69.0
56594;BME280;42474;51.660;5.824;2023-03-04T12:45:31;102370.0;;;10.2;69.0
56594;BME280;42474;51.660;5.824;2023-03-04T12:51:24;102370.0;;;10.2;69.0
56594;BME280;42474;51.660;5.824;2023-03-04T12:55:35;102370.0;;;10.0;68.5
56594;BME280;42474;51.660;5.824;2023-03-04T13:00:53;102370.0;;;9.9;69.0
56594;BME280;42474;51.660;5.824;2023-03-04T13:05:55;102360.0;;;9.8;69.0
56594;BME280;42474;51.660;5.824;2023-03-04T13:10:22;102360.0;;;9.6;69.0
56594;BME280;42474;51.660;5.824;2023-03-04T13:15:33;102360.0;;;9.3;70.0
56594;BME280;42474;51.660;5.824;2023-03-04T13:20:41;102350.0;;;9.1;71.0
56594;BME280;42474;51.660;5.824;2023-03-04T13:25:40;102330.0;;;9.1;72.0
56594;BME280;42474;51.660;5.824;2023-03-04T13:31:25;102320.0;;;9.3;72.5
56594;BME280;42474;51.660;5.824;2023-03-04T13:35:47;102320.0;;;9.6;72.5
56594;BME280;42474;51.660;5.824;2023-03-04T13:40:37;102320.0;;;9.8;72.5
56594;BME280;42474;51.660;5.824;2023-03-04T13:45:35;102310.0;;;10.0;72.5
56594;BME280;42474;51.660;5.824;2023-03-04T13:50:44;102310.0;;;10.2;72.0
56594;BME280;42474;51.660;5.824;2023-03-04T13:55:42;102310.0;;;10.2;71.0
56594;BME280;42474;51.660;5.824;2023-03-04T14:00:22;102300.0;;;10.1;71.0
56594;BME280;42474;51.660;5.824;2023-03-04T14:05:22;102310.0;;;10.0;70.5
56594;BME280;42474;51.660;5.824;2023-03-04T14:10:25;102300.0;;;9.9;70.0
56594;BME280;42474;51.660;5.824;2023-03-04T14:15:29;102290.0;;;9.8;69.5
56594;BME280;42474;51.660;5.824;2023-03-04T14:20:26;102300.0;;;9.9;69.5
56594;BME280;42474;51.660;5.824;2023-03-04T14:25:26;102290.0;;;10.0;69.5
56594;BME280;42474;51.660;5.824;2023-03-04T14:30:26;102290.0;;;10.1;69.0
56594;BME280;42474;51.660;5.824;2023-03-04T14:35:27;102290.0;;;10.2;68.5
56594;BME280;42474;51.660;5.824;2023-03-04T14:40:27;102280.0;;;10.2;68.0
56594;BME280;42474;51.660;5.824;2023-03-04T14:45:23;102270.0;;;10.2;68.0
56594;BME280;42474;51.660;5.824;2023-03-04T14:50:22;102280.0;;;10.1;67.0
56594;BME280;42474;51.660;5.824;2023-03-04T14:55:25;102270.0;;;9.9;66.0
56594;BME280;42474;51.660;5.824;2023-03-04T15:00:30;102280.0;;;9.7;66.0
56594;BME280;42474;51.660;5.824;2023-03-04T15:05:30;102280.0;;;9.5;66.0
56594;BME280;42474;51.660;5.824;2023-03-04T15:10:27;102280.0;;;9.3;66.5
56594;BME280;42474;51.660;5.824;2023-03-04T15:15:43;102280.0;;;9.3;67.0
56594;BME280;42474;51.660;5.824;2023-03-04T15:20:26;102270.0;;;9.2;66.5
56594;BME280;42474;51.660;5.824;2023-03-04T15:25:22;102280.0;;;9.0;67.0
56594;BME280;42474;51.660;5.824;2023-03-04T15:30:29;102280.0;;;8.9;67.0
56594;BME280;42474;51.660;5.824;2023-03-04T15:35:28;102270.0;;;8.8;67.0
56594;BME280;42474;51.660;5.824;2023-03-04T15:40:29;102260.0;;;8.8;67.0
56594;BME280;42474;51.660;5.824;2023-03-04T15:45:28;102270.0;;;8.8;67.0
56594;BME280;42474;51.660;5.824;2023-03-04T15:50:27;102270.0;;;8.8;67.0
56594;BME280;42474;51.660;5.824;2023-03-04T15:55:22;102280.0;;;8.7;66.5
56594;BME280;42474;51.660;5.824;2023-03-04T16:00:23;102270.0;;;8.6;66.5
56594;BME280;42474;51.660;5.824;2023-03-04T16:05:22;102270.0;;;8.5;66.5
56594;BME280;42474;51.660;5.824;2023-03-04T16:10:26;102260.0;;;8.5;66.5
56594;BME280;42474;51.660;5.824;2023-03-04T16:15:27;102260.0;;;8.5;66.0
56594;BME280;42474;51.660;5.824;2023-03-04T16:20:29;102260.0;;;8.4;65.5
56594;BME280;42474;51.660;5.824;2023-03-04T16:25:24;102250.0;;;8.3;65.5
56594;BME280;42474;51.660;5.824;2023-03-04T16:30:25;102260.0;;;8.3;66.0
56594;BME280;42474;51.660;5.824;2023-03-04T16:35:22;102260.0;;;8.2;65.5
56594;BME280;42474;51.660;5.824;2023-03-04T16:40:27;102260.0;;;8.2;65.5
56594;BME280;42474;51.660;5.824;2023-03-04T16:45:27;102260.0;;;8.1;66.0
56594;BME280;42474;51.660;5.824;2023-03-04T16:50:27;102270.0;;;8.1;66.0
56594;BME280;42474;51.660;5.824;2023-03-04T16:55:26;102260.0;;;8.0;66.0
56594;BME280;42474;51.660;5.824;2023-03-04T17:00:27;102260.0;;;8.0;66.5
56594;BME280;42474;51.660;5.824;2023-03-04T17:05:32;102270.0;;;8.0;66.0
56594;BME280;42474;51.660;5.824;2023-03-04T17:10:24;102280.0;;;7.9;66.5
56594;BME280;42474;51.660;5.824;2023-03-04T17:15:22;102280.0;;;7.8;66.5
56594;BME280;42474;51.660;5.824;2023-03-04T17:20:22;102280.0;;;7.7;67.0
56594;BME280;42474;51.660;5.824;2023-03-04T17:25:22;102280.0;;;7.7;67.0
56594;BME280;42474;51.660;5.824;2023-03-04T17:30:22;102280.0;;;7.6;67.5
56594;BME280;42474;51.660;5.824;2023-03-04T17:35:22;102280.0;;;7.6;67.0
56594;BME280;42474;51.660;5.824;2023-03-04T17:40:22;102280.0;;;7.6;67.0
56594;BME280;42474;51.660;5.824;2023-03-04T17:45:22;102290.0;;;7.5;67.0
56594;BME280;42474;51.660;5.824;2023-03-04T17:50:22;102290.0;;;7.5;66.5
56594;BME280;42474;51.660;5.824;2023-03-04T17:55:22;102280.0;;;7.5;66.5
56594;BME280;42474;51.660;5.824;2023-03-04T18:00:22;102290.0;;;7.5;66.5
56594;BME280;42474;51.660;5.824;2023-03-04T18:05:22;102290.0;;;7.4;66.5
56594;BME280;42474;51.660;5.824;2023-03-04T18:10:23;102290.0;;;7.4;66.5
56594;BME280;42474;51.660;5.824;2023-03-04T18:15:22;102290.0;;;7.4;66.5
56594;BME280;42474;51.660;5.824;2023-03-04T18:20:23;102300.0;;;7.3;67.0
56594;BME280;42474;51.660;5.824;2023-03-04T18:25:23;102300.0;;;7.3;67.0
56594;BME280;42474;51.660;5.824;2023-03-04T18:30:23;102290.0;;;7.3;67.0
56594;BME280;42474;51.660;5.824;2023-03-04T18:35:22;102290.0;;;7.3;67.0
56594;BME280;42474;51.660;5.824;2023-03-04T18:40:22;102290.0;;;7.3;67.0
56594;BME280;42474;51.660;5.824;2023-03-04T18:45:22;102300.0;;;7.3;67.0
56594;BME280;42474;51.660;5.824;2023-03-04T18:50:22;102310.0;;;7.3;67.0
56594;BME280;42474;51.660;5.824;2023-03-04T18:55:23;102300.0;;;7.3;67.5
56594;BME280;42474;51.660;5.824;2023-03-04T19:00:23;102300.0;;;7.2;67.5
56594;BME280;42474;51.660;5.824;2023-03-04T19:05:29;102300.0;;;7.2;67.0
56594;BME280;42474;51.660;5.824;2023-03-04T19:10:23;102310.0;;;7.1;67.0
56594;BME280;42474;51.660;5.824;2023-03-04T19:15:22;102310.0;;;7.1;67.0
56594;BME280;42474;51.660;5.824;2023-03-04T19:20:22;102310.0;;;7.0;67.5
56594;BME280;42474;51.660;5.824;2023-03-04T19:25:22;102310.0;;;6.9;67.5
56594;BME280;42474;51.660;5.824;2023-03-04T19:30:22;102300.0;;;6.9;67.5
56594;BME280;42474;51.660;5.824;2023-03-04T19:35:22;102310.0;;;6.8;67.5
56594;BME280;42474;51.660;5.824;2023-03-04T19:40:22;102310.0;;;6.7;68.0
56594;BME280;42474;51.660;5.824;2023-03-04T19:45:23;102310.0;;;6.7;68.0
56594;BME280;42474;51.660;5.824;2023-03-04T19:50:22;102310.0;;;6.7;68.0
56594;BME280;42474;51.660;5.824;2023-03-04T19:55:23;102300.0;;;6.6;68.0
56594;BME280;42474;51.660;5.824;2023-03-04T20:00:22;102300.0;;;6.6;68.0
56594;BME280;42474;51.660;5.824;2023-03-04T20:05:22;102300.0;;;6.6;68.5
56594;BME280;42474;51.660;5.824;2023-03-04T20:10:22;102290.0;;;6.6;68.5
56594;BME280;42474;51.660;5.824;2023-03-04T20:15:22;102300.0;;;6.5;68.5
56594;BME280;42474;51.660;5.824;2023-03-04T20:20:22;102290.0;;;6.5;68.5
56594;BME280;42474;51.660;5.824;2023-03-04T20:25:23;102290.0;;;6.5;68.5
56594;BME280;42474;51.660;5.824;2023-03-04T20:30:22;102300.0;;;6.5;68.5
56594;BME280;42474;51.660;5.824;2023-03-04T20:35:22;102300.0;;;6.4;68.5
56594;BME280;42474;51.660;5.824;2023-03-04T20:40:22;102300.0;;;6.4;69.0
56594;BME280;42474;51.660;5.824;2023-03-04T20:45:22;102300.0;;;6.4;69.0
56594;BME280;42474;51.660;5.824;2023-03-04T20:50:22;102290.0;;;6.4;69.0
56594;BME280;42474;51.660;5.824;2023-03-04T20:55:22;102300.0;;;6.4;69.0
56594;BME280;42474;51.660;5.824;2023-03-04T21:00:23;102300.0;;;6.3;69.0
56594;BME280;42474;51.660;5.824;2023-03-04T21:05:22;102300.0;;;6.3;69.0
56594;BME280;42474;51.660;5.824;2023-03-04T21:10:22;102300.0;;;6.3;69.5
56594;BME280;42474;51.660;5.824;2023-03-04T21:15:22;102300.0;;;6.3;69.5
56594;BME280;42474;51.660;5.824;2023-03-04T21:20:22;102290.0;;;6.3;69.5
56594;BME280;42474;51.660;5.824;2023-03-04T21:25:22;102290.0;;;6.3;69.5
56594;BME280;42474;51.660;5.824;2023-03-04T21:30:22;102280.0;;;6.3;70.0
56594;BME280;42474;51.660;5.824;2023-03-04T21:35:23;102280.0;;;6.3;70.0
56594;BME280;42474;51.660;5.824;2023-03-04T21:40:22;102270.0;;;6.2;70.0
56594;BME280;42474;51.660;5.824;2023-03-04T21:45:22;102270.0;;;6.2;70.0
56594;BME280;42474;51.660;5.824;2023-03-04T21:50:23;102260.0;;;6.2;70.0
56594;BME280;42474;51.660;5.824;2023-03-04T21:55:22;102270.0;;;6.1;70.0
56594;BME280;42474;51.660;5.824;2023-03-04T22:00:22;102260.0;;;6.1;70.0
56594;BME280;42474;51.660;5.824;2023-03-04T22:05:23;102260.0;;;6.1;70.0
56594;BME280;42474;51.660;5.824;2023-03-04T22:10:22;102260.0;;;6.1;70.0
56594;BME280;42474;51.660;5.824;2023-03-04T22:15:22;102260.0;;;6.1;70.5
56594;BME280;42474;51.660;5.824;2023-03-04T22:20:22;102250.0;;;6.0;70.5
56594;BME280;42474;51.660;5.824;2023-03-04T22:25:22;102250.0;;;6.0;70.5
56594;BME280;42474;51.660;5.824;2023-03-04T22:30:22;102240.0;;;6.0;70.5
56594;BME280;42474;51.660;5.824;2023-03-04T22:35:22;102250.0;;;6.0;71.0
56594;BME280;42474;51.660;5.824;2023-03-04T22:40:23;102250.0;;;6.0;71.0
56594;BME280;42474;51.660;5.824;2023-03-04T22:45:22;102250.0;;;6.0;71.0
56594;BME280;42474;51.660;5.824;2023-03-04T22:50:22;102240.0;;;5.9;71.0
56594;BME280;42474;51.660;5.824;2023-03-04T22:55:22;102230.0;;;5.9;71.0
56594;BME280;42474;51.660;5.824;2023-03-04T23:00:26;102240.0;;;5.9;71.0
56594;BME280;42474;51.660;5.824;2023-03-04T23:05:24;102230.0;;;5.8;71.0
56594;BME280;42474;51.660;5.824;2023-03-04T23:10:24;102230.0;;;5.8;71.5
56594;BME280;42474;51.660;5.824;2023-03-04T23:15:22;102220.0;;;5.8;71.5
56594;BME280;42474;51.660;5.824;2023-03-04T23:20:22;102220.0;;;5.8;71.5
56594;BME280;42474;51.660;5.824;2023-03-04T23:25:22;102210.0;;;5.7;71.5
56594;BME280;42474;51.660;5.824;2023-03-04T23:30:22;102220.0;;;5.7;71.5
56594;BME280;42474;51.660;5.824;2023-03-04T23:35:22;102220.0;;;5.7;72.0
56594;BME280;42474;51.660;5.824;2023-03-04T23:40:22;102200.0;;;5.7;72.0
56594;BME280;42474;51.660;5.824;2023-03-04T23:45:22;102200.0;;;5.6;72.0
56594;BME280;42474;51.660;5.824;2023-03-04T23:50:22;102200.0;;;5.6;72.5
56594;BME280;42474;51.660;5.824;2023-03-04T23:55:22;102200.0;;;5.6;72.0
